Big Bear Station Historical Data
Daily Summary for February 9, 2017 Units:  English    Metric   Both
« Previous Day
Next Day »
Daily Weekly Monthly Yearly Custom
  High: Low: Average:
Temperature: 60.1 °F 28.9 °F 42.2 °F
Dew Point: 39.8 °F 27.4 °F 32.3 °F
Humidity: 97 % 46 % 71 %
Wind Speed: 5.3 mph 0.0 mph 1.7 mph
Wind Gust: -999.0 mph - -
Wind:- - SSW
Pressure: 30.31 in 30.19 in -
Precipitation: 0.00 in    
Historical Graphs
 
 
Tabular Data for February 9, 2017
Time Temperature Dew Point Pressure Wind Wind Speed Wind Gust Humidity Rainfall Rate (Hourly)
00:00 32.2 °F 29.0 °F 30.31 in South 2.2 mph -999.0 mph 88 % 0 in
00:15 31.8 °F 28.9 °F 30.31 in SSE 1.7 mph -999.0 mph 89 % 0 in
00:30 31.8 °F 29.2 °F 30.30 in Calm   -999.0 mph 90 % 0 in
00:45 31.6 °F 29.0 °F 30.30 in South 1.7 mph -999.0 mph 90 % 0 in
01:01 31.5 °F 29.2 °F 30.29 in South 1.1 mph -999.0 mph 91 % 0 in
01:16 31.1 °F 29.0 °F 30.29 in NNW 2.2 mph -999.0 mph 92 % 0 in
01:31 31.3 °F 29.2 °F 30.29 in Calm   -999.0 mph 92 % 0 in
01:47 30.9 °F 28.9 °F 30.29 in SE 1.1 mph -999.0 mph 92 % 0 in
02:02 30.7 °F 28.9 °F 30.28 in Calm   -999.0 mph 93 % 0 in
02:17 30.6 °F 28.8 °F 30.28 in Calm   -999.0 mph 93 % 0 in
02:32 30.6 °F 29.1 °F 30.28 in Calm   -999.0 mph 94 % 0 in
02:48 30.4 °F 28.9 °F 30.28 in Calm   -999.0 mph 94 % 0 in
03:03 30.6 °F 29.3 °F 30.27 in Calm   -999.0 mph 95 % 0 in
03:19 30.4 °F 29.1 °F 30.27 in Calm   -999.0 mph 95 % 0 in
03:34 30.0 °F 28.7 °F 30.26 in Calm   -999.0 mph 95 % 0 in
03:49 30.0 °F 29.0 °F 30.26 in Calm   -999.0 mph 96 % 0 in
04:04 30.0 °F 29.0 °F 30.26 in NW 3.7 mph -999.0 mph 96 % 0 in
04:20 30.2 °F 29.2 °F 30.26 in Calm   -999.0 mph 96 % 0 in
04:35 29.8 °F 28.8 °F 30.25 in SSW 1.1 mph -999.0 mph 96 % 0 in
04:50 29.7 °F 28.7 °F 30.25 in Calm   -999.0 mph 96 % 0 in
05:06 30.0 °F 29.3 °F 30.25 in South 1.7 mph -999.0 mph 97 % 0 in
05:21 29.5 °F 28.8 °F 30.26 in Calm   -999.0 mph 97 % 0 in
05:37 29.3 °F 28.6 °F 30.26 in Calm   -999.0 mph 97 % 0 in
05:52 29.5 °F 28.8 °F 30.26 in Calm   -999.0 mph 97 % 0 in
06:07 29.1 °F 28.4 °F 30.26 in Calm   -999.0 mph 97 % 0 in
06:22 28.9 °F 28.2 °F 30.26 in Calm   -999.0 mph 97 % 0 in
06:38 28.9 °F 28.2 °F 30.26 in Calm   -999.0 mph 97 % 0 in
06:53 29.5 °F 28.8 °F 30.27 in Calm   -999.0 mph 97 % 0 in
07:09 29.5 °F 28.8 °F 30.27 in Calm   -999.0 mph 97 % 0 in
07:24 29.5 °F 28.8 °F 30.27 in Calm   -999.0 mph 97 % 0 in
07:39 29.8 °F 29.1 °F 30.27 in Calm   -999.0 mph 97 % 0 in
07:54 31.1 °F 30.3 °F 30.27 in Calm   -999.0 mph 97 % 0 in
08:09 32.7 °F 31.2 °F 30.27 in Calm   -999.0 mph 94 % 0 in
08:25 33.3 °F 31.8 °F 30.27 in SSE 2.2 mph -999.0 mph 94 % 0 in
08:40 37.2 °F 34.5 °F 30.27 in SSW 1.7 mph -999.0 mph 90 % 0 in
08:55 39.6 °F 36.9 °F 30.27 in Calm   -999.0 mph 90 % 0 in
09:11 45.3 °F 36.5 °F 30.27 in WNW 2.7 mph -999.0 mph 71 % 0 in
09:26 49.8 °F 35.6 °F 30.27 in NNW 3.2 mph -999.0 mph 58 % 0 in
09:42 50.7 °F 35.6 °F 30.27 in NW 2.7 mph -999.0 mph 56 % 0 in
09:57 53.1 °F 36.9 °F 30.26 in WSW 2.7 mph -999.0 mph 54 % 0 in
10:12 56.1 °F 37.7 °F 30.27 in West 2.7 mph -999.0 mph 50 % 0 in
10:27 56.3 °F 37.4 °F 30.26 in East 3.2 mph -999.0 mph 49 % 0 in
10:42 57.9 °F 38.3 °F 30.26 in WNW 1.7 mph -999.0 mph 48 % 0 in
10:58 56.3 °F 37.9 °F 30.26 in NW 3.2 mph -999.0 mph 50 % 0 in
11:13 56.5 °F 37.6 °F 30.26 in ENE 2.2 mph -999.0 mph 49 % 0 in
11:29 57.0 °F 38.0 °F 30.26 in SSW 1.1 mph -999.0 mph 49 % 0 in
11:44 56.5 °F 38.6 °F 30.25 in SSE 5.3 mph -999.0 mph 51 % 0 in
11:59 57.7 °F 38.7 °F 30.25 in SSE 3.7 mph -999.0 mph 49 % 0 in
12:14 59.2 °F 39.0 °F 30.24 in WSW 4.7 mph -999.0 mph 47 % 0 in
12:29 59.9 °F 39.6 °F 30.23 in SSE 2.2 mph -999.0 mph 47 % 0 in
12:45 60.1 °F 39.8 °F 30.23 in West 5.3 mph -999.0 mph 47 % 0 in
13:00 58.6 °F 39.5 °F 30.22 in SW 4.7 mph -999.0 mph 49 % 0 in
13:15 57.0 °F 39.5 °F 30.22 in SW 3.2 mph -999.0 mph 52 % 0 in
13:30 57.0 °F 38.5 °F 30.21 in South 3.2 mph -999.0 mph 50 % 0 in
13:46 56.8 °F 37.8 °F 30.21 in NNE 3.7 mph -999.0 mph 49 % 0 in
14:01 56.7 °F 37.2 °F 30.21 in NNW 3.2 mph -999.0 mph 48 % 0 in
14:16 55.6 °F 36.7 °F 30.21 in WSW 2.2 mph -999.0 mph 49 % 0 in
14:31 55.6 °F 35.1 °F 30.20 in East 2.2 mph -999.0 mph 46 % 0 in
14:46 55.0 °F 35.7 °F 30.20 in South 3.2 mph -999.0 mph 48 % 0 in
15:02 55.6 °F 35.1 °F 30.20 in South 3.7 mph -999.0 mph 46 % 0 in
15:17 54.9 °F 35.0 °F 30.19 in South 3.2 mph -999.0 mph 47 % 0 in
15:32 53.4 °F 34.2 °F 30.19 in South 3.2 mph -999.0 mph 48 % 0 in
15:48 53.6 °F 34.4 °F 30.20 in Calm   -999.0 mph 48 % 0 in
16:18 52.2 °F 34.6 °F 30.19 in South 4.2 mph -999.0 mph 51 % 0 in
16:33 51.4 °F 35.3 °F 30.19 in NW 1.1 mph -999.0 mph 54 % 0 in
17:04 49.5 °F 36.6 °F 30.19 in Calm   -999.0 mph 61 % 0 in
17:20 48.6 °F 37.0 °F 30.19 in West 2.7 mph -999.0 mph 64 % 0 in
17:35 47.3 °F 35.7 °F 30.19 in SSW 1.7 mph -999.0 mph 64 % 0 in
17:50 46.0 °F 34.5 °F 30.19 in Calm   -999.0 mph 64 % 0 in
18:06 45.7 °F 34.6 °F 30.19 in SSW 1.1 mph -999.0 mph 65 % 0 in
18:21 45.7 °F 33.8 °F 30.19 in Calm   -999.0 mph 63 % 0 in
18:36 45.9 °F 32.8 °F 30.20 in South 2.2 mph -999.0 mph 60 % 0 in
18:51 45.7 °F 31.8 °F 30.20 in SSW 2.2 mph -999.0 mph 58 % 0 in
19:06 45.0 °F 31.1 °F 30.20 in Calm   -999.0 mph 58 % 0 in
19:22 44.8 °F 30.5 °F 30.20 in South 2.2 mph -999.0 mph 57 % 0 in
19:37 44.2 °F 28.1 °F 30.20 in South 1.7 mph -999.0 mph 53 % 0 in
19:52 43.9 °F 28.8 °F 30.20 in SSE 2.2 mph -999.0 mph 55 % 0 in
20:07 43.5 °F 27.9 °F 30.20 in SW 2.2 mph -999.0 mph 54 % 0 in
20:23 42.6 °F 28.4 °F 30.20 in South 2.2 mph -999.0 mph 57 % 0 in
20:38 41.7 °F 27.6 °F 30.20 in SSW 2.2 mph -999.0 mph 57 % 0 in
20:53 41.5 °F 27.4 °F 30.20 in SSW 2.2 mph -999.0 mph 57 % 0 in
21:08 41.4 °F 28.6 °F 30.20 in South 2.7 mph -999.0 mph 60 % 0 in
21:24 41.7 °F 27.6 °F 30.20 in SSW 2.2 mph -999.0 mph 57 % 0 in
21:39 41.4 °F 27.7 °F 30.20 in SSW 2.2 mph -999.0 mph 58 % 0 in
21:54 40.5 °F 27.7 °F 30.20 in SSW 2.2 mph -999.0 mph 60 % 0 in
22:09 41.0 °F 28.2 °F 30.20 in South 2.2 mph -999.0 mph 60 % 0 in
22:24 40.5 °F 28.9 °F 30.20 in SSE 2.7 mph -999.0 mph 63 % 0 in
22:40 40.3 °F 30.2 °F 30.20 in South 1.7 mph -999.0 mph 67 % 0 in
22:55 40.5 °F 32.5 °F 30.20 in Calm   -999.0 mph 73 % 0 in
23:11 39.9 °F 31.9 °F 30.20 in South 2.2 mph -999.0 mph 73 % 0 in
23:26 39.6 °F 32.3 °F 30.19 in Calm   -999.0 mph 75 % 0 in
23:41 38.7 °F 31.8 °F 30.19 in Calm   -999.0 mph 76 % 0 in
23:57 38.5 °F 31.9 °F 30.19 in SSE 2.7 mph -999.0 mph 77 % 0 in
Big Bear CA Weather
Compliments of Weather Underground - 1.5 mb